createdAt,value
2022-09-05T00:02:01.646Z,99096.81
2022-09-05T00:04:29.314Z,99105.13
2022-09-05T00:06:36.633Z,99098.56
2022-09-05T00:08:46.165Z,99111.63
2022-09-05T00:11:41.054Z,99106.69
2022-09-05T00:13:57.403Z,99103.69
2022-09-05T00:16:27.250Z,99111.81
2022-09-05T00:23:52.943Z,99106.06
2022-09-05T00:24:26.948Z,99106.66
2022-09-05T00:25:00.738Z,99105.66
2022-09-05T00:27:13.744Z,99115.72
2022-09-05T00:30:32.057Z,99105.25
2022-09-05T00:32:10.798Z,99115.50
2022-09-05T00:34:25.717Z,99110.28
2022-09-05T00:36:46.306Z,99106.97
2022-09-05T00:39:04.167Z,99114.78
2022-09-05T00:41:11.381Z,99111.47
2022-09-05T00:43:25.097Z,99117.09
2022-09-05T00:45:39.597Z,99119.03
2022-09-05T00:47:55.327Z,99120.78
2022-09-05T00:50:01.794Z,99126.63
2022-09-05T00:52:24.644Z,99120.06
2022-09-05T00:54:53.718Z,99125.09
2022-09-05T00:57:30.686Z,99123.75
2022-09-05T00:59:58.468Z,99122.41
2022-09-05T01:02:27.601Z,99124.66
2022-09-05T01:04:58.906Z,99129.16
2022-09-05T01:07:37.992Z,99136.94
2022-09-05T01:10:03.926Z,99149.97
2022-09-05T01:12:19.957Z,99143.69
2022-09-05T01:14:35.095Z,99131.00
2022-09-05T01:17:05.100Z,99141.56
2022-09-05T01:19:16.026Z,99128.31
2022-09-05T01:21:29.818Z,99133.84
2022-09-05T01:23:43.841Z,99124.19
2022-09-05T01:26:23.149Z,99126.72
2022-09-05T01:29:16.677Z,99126.72
2022-09-05T01:31:30.332Z,99131.84
2022-09-05T01:33:59.775Z,99134.09
2022-09-05T01:36:20.628Z,99136.31
2022-09-05T01:39:49.182Z,99132.53
2022-09-05T01:41:36.464Z,99136.19
2022-09-05T01:44:02.869Z,99130.94
2022-09-05T01:46:22.845Z,99133.50
2022-09-05T01:49:14.751Z,99133.28
2022-09-05T01:51:46.162Z,99133.34
2022-09-05T01:53:58.065Z,99133.94
2022-09-05T01:56:25.897Z,99128.69
2022-09-05T01:58:50.847Z,99131.53
2022-09-05T02:01:30.103Z,99128.25
2022-09-05T02:03:50.255Z,99133.84
2022-09-05T02:06:33.443Z,99134.44
2022-09-05T02:09:18.894Z,99132.59
2022-09-05T02:11:41.673Z,99135.94
2022-09-05T02:13:58.623Z,99138.19
2022-09-05T02:16:07.687Z,99138.47
2022-09-05T02:18:19.448Z,99133.25
2022-09-05T02:20:31.878Z,99137.13
2022-09-05T02:23:00.631Z,99132.22
2022-09-05T02:25:32.132Z,99128.88
2022-09-05T02:28:04.591Z,99130.31
2022-09-05T02:30:17.364Z,99135.03
2022-09-05T02:32:32.126Z,99120.97
2022-09-05T02:34:53.472Z,99126.81
2022-09-05T02:37:05.759Z,99121.03
2022-09-05T02:45:01.648Z,99120.00
2022-09-05T02:45:10.984Z,99135.53
2022-09-05T02:45:17.796Z,99127.00
2022-09-05T02:47:09.856Z,99129.00
2022-09-05T02:51:04.184Z,99126.00
2022-09-05T02:57:29.106Z,99126.59
2022-09-05T02:57:41.358Z,99126.06
2022-09-05T02:57:44.561Z,99122.25
2022-09-05T03:00:03.215Z,99125.59
2022-09-05T03:02:25.991Z,99121.78
2022-09-05T03:05:04.481Z,99128.97
2022-09-05T03:07:12.083Z,99132.31
2022-09-05T03:09:29.861Z,99117.97
2022-09-05T03:11:50.170Z,99118.28
2022-09-05T03:14:13.403Z,99118.56
2022-09-05T03:16:17.701Z,99115.28
2022-09-05T03:18:47.265Z,99117.78
2022-09-05T03:21:24.221Z,99116.16
2022-09-05T03:23:52.200Z,99120.91
2022-09-05T03:26:29.092Z,99116.50
2022-09-05T03:29:01.766Z,99114.63
2022-09-05T03:31:22.723Z,99109.41
2022-09-05T03:33:41.359Z,99110.81
2022-09-05T03:36:22.344Z,99109.72
2022-09-05T03:38:30.090Z,99110.03
2022-09-05T03:41:04.675Z,99118.63
2022-09-05T03:43:40.971Z,99110.91
2022-09-05T03:45:54.896Z,99107.63
2022-09-05T03:48:38.021Z,99106.28
2022-09-05T03:56:55.597Z,99105.72
2022-09-05T03:57:22.451Z,99111.00
2022-09-05T03:57:24.719Z,99108.78
2022-09-05T03:59:30.799Z,99109.94
2022-09-05T04:04:14.230Z,99109.13
2022-09-05T04:08:07.315Z,99104.19
2022-09-05T04:08:20.760Z,99100.91
2022-09-05T04:09:50.472Z,99099.22
2022-09-05T04:11:57.785Z,99099.22
2022-09-05T04:14:10.707Z,99102.56
2022-09-05T04:16:24.861Z,99103.72
2022-09-05T04:18:39.426Z,99092.94
2022-09-05T04:20:57.170Z,99100.69
2022-09-05T04:23:34.677Z,99100.44
2022-09-05T04:26:11.710Z,99102.13
2022-09-05T04:28:41.382Z,99092.19
2022-09-05T04:31:04.624Z,99103.53
2022-09-05T04:33:17.568Z,99095.56
2022-09-05T04:35:31.758Z,99104.63
2022-09-05T04:37:48.436Z,99108.81
2022-09-05T04:39:50.814Z,99105.50
2022-09-05T04:42:06.664Z,99113.81
2022-09-05T04:44:17.295Z,99119.63
2022-09-05T04:46:28.868Z,99118.78
2022-09-05T04:48:48.062Z,99121.56
2022-09-05T04:51:12.817Z,99133.69
2022-09-05T04:53:33.439Z,99142.28
2022-09-05T04:55:50.659Z,99146.97
2022-09-05T04:58:00.134Z,99148.91
2022-09-05T05:05:58.267Z,99144.22
2022-09-05T05:06:12.050Z,99150.88
2022-09-05T05:06:19.738Z,99153.03
2022-09-05T05:08:05.632Z,99150.03
2022-09-05T05:13:28.288Z,99153.63
2022-09-05T05:18:03.136Z,99154.19
2022-09-05T05:18:15.158Z,99154.19
2022-09-05T05:18:42.274Z,99156.66
2022-09-05T05:20:42.106Z,99167.72
2022-09-05T05:22:47.938Z,99154.72
2022-09-05T05:24:57.341Z,99160.25
2022-09-05T05:27:04.224Z,99158.31
2022-09-05T05:29:38.863Z,99162.19
2022-09-05T05:31:58.410Z,99174.06
2022-09-05T05:34:24.209Z,99171.28
2022-09-05T05:36:30.823Z,99182.03
2022-09-05T05:38:49.174Z,99180.09
2022-09-05T05:40:58.276Z,99186.16
2022-09-05T05:43:25.902Z,99183.41
2022-09-05T05:45:30.926Z,99189.53
2022-09-05T05:47:42.748Z,99190.31
2022-09-05T05:50:11.240Z,99192.81
2022-09-05T05:52:37.993Z,99194.44
2022-09-05T05:54:45.745Z,99200.53
2022-09-05T05:57:10.075Z,99199.41
2022-09-05T05:59:29.997Z,99185.84
2022-09-05T06:01:40.367Z,99188.84
2022-09-05T06:04:02.347Z,99189.09
2022-09-05T06:06:10.147Z,99183.84
2022-09-05T06:12:08.329Z,99186.56
2022-09-05T06:14:51.850Z,99184.56
2022-09-05T06:15:05.622Z,99187.84
2022-09-05T06:16:55.121Z,99189.69
2022-09-05T06:19:25.507Z,99196.69
2022-09-05T06:22:11.745Z,99189.34
2022-09-05T06:24:33.000Z,99191.34
2022-09-05T06:26:49.210Z,99191.94
2022-09-05T06:29:09.772Z,99196.38
2022-09-05T06:31:30.732Z,99196.63
2022-09-05T06:33:45.379Z,99196.59
2022-09-05T06:36:10.325Z,99193.22
2022-09-05T06:38:44.613Z,99192.59
2022-09-05T06:41:15.174Z,99198.88
2022-09-05T06:43:44.414Z,99201.59
2022-09-05T06:46:05.937Z,99197.28
2022-09-05T06:48:44.688Z,99200.50
2022-09-05T06:51:08.524Z,99198.19
2022-09-05T06:53:29.003Z,99200.31
2022-09-05T06:55:59.909Z,99202.47
2022-09-05T06:58:25.946Z,99205.41
2022-09-05T07:00:48.539Z,99203.41
2022-09-05T07:03:17.393Z,99209.16
2022-09-05T07:05:44.506Z,99210.13
2022-09-05T07:08:34.870Z,99205.50
2022-09-05T07:10:38.770Z,99210.06
2022-09-05T07:13:06.351Z,99212.97
2022-09-05T07:15:36.082Z,99205.81
2022-09-05T07:18:10.955Z,99219.50
2022-09-05T07:20:18.333Z,99209.59
2022-09-05T07:22:49.401Z,99203.56
2022-09-05T07:24:54.462Z,99208.19
2022-09-05T07:26:59.911Z,99211.34
2022-09-05T07:29:09.884Z,99210.41
2022-09-05T07:31:33.640Z,99208.28
2022-09-05T07:33:42.695Z,99196.66
2022-09-05T07:35:45.034Z,99214.53
2022-09-05T07:37:54.385Z,99201.56
2022-09-05T07:40:02.413Z,99209.75
2022-09-05T07:42:27.454Z,99209.72
2022-09-05T07:44:38.781Z,99209.88
2022-09-05T07:46:42.221Z,99214.44
2022-09-05T07:48:48.407Z,99201.25
2022-09-05T07:56:42.552Z,99204.84
2022-09-05T07:56:49.701Z,99198.03
2022-09-05T07:57:03.159Z,99192.44
2022-09-05T07:58:17.578Z,99195.97
2022-09-05T08:00:26.907Z,99192.50
2022-09-05T08:02:31.999Z,99190.13
2022-09-05T08:04:36.429Z,99187.75
2022-09-05T08:07:46.174Z,99191.44
2022-09-05T08:10:05.316Z,99192.69
2022-09-05T08:11:42.880Z,99187.97
2022-09-05T08:14:43.694Z,99189.56
2022-09-05T08:16:28.452Z,99185.66
2022-09-05T08:18:42.824Z,99181.59
2022-09-05T08:20:51.798Z,99188.06
2022-09-05T08:23:06.316Z,99190.56
2022-09-05T08:25:17.781Z,99186.66
2022-09-05T08:27:28.196Z,99189.13
2022-09-05T08:29:40.679Z,99190.78
2022-09-05T08:31:52.680Z,99186.00
2022-09-05T08:34:00.592Z,99183.69
2022-09-05T08:36:17.835Z,99178.88
2022-09-05T08:38:20.379Z,99179.34
2022-09-05T08:40:33.180Z,99180.50
2022-09-05T08:45:50.655Z,99175.69
2022-09-05T08:46:42.890Z,99174.16
2022-09-05T08:47:58.303Z,99176.09
2022-09-05T08:50:15.365Z,99176.41
2022-09-05T08:52:41.682Z,99172.72
2022-09-05T08:54:54.893Z,99177.50
2022-09-05T08:57:13.862Z,99173.00
2022-09-05T08:59:32.869Z,99175.28
2022-09-05T09:01:57.701Z,99168.78
2022-09-05T09:04:40.008Z,99168.69
2022-09-05T09:07:47.163Z,99175.50
2022-09-05T09:09:55.150Z,99175.53
2022-09-05T09:12:07.770Z,99166.28
2022-09-05T09:14:46.842Z,99163.81
2022-09-05T09:16:54.185Z,99167.34
2022-09-05T09:19:11.130Z,99155.97
2022-09-05T09:21:25.272Z,99153.03
2022-09-05T09:23:51.212Z,99144.88
2022-09-05T09:26:13.299Z,99150.00
2022-09-05T09:28:50.345Z,99146.72
2022-09-05T09:31:03.847Z,99147.41
2022-09-05T09:33:11.631Z,99145.25
2022-09-05T09:35:23.492Z,99145.09
2022-09-05T09:37:59.794Z,99144.13
2022-09-05T09:40:33.895Z,99146.75
2022-09-05T09:42:47.756Z,99139.72
2022-09-05T09:45:29.060Z,99148.81
2022-09-05T09:47:55.140Z,99143.38
2022-09-05T09:50:53.514Z,99149.28
2022-09-05T09:53:13.128Z,99137.44
2022-09-05T09:55:46.399Z,99141.28
2022-09-05T09:58:00.905Z,99137.50
2022-09-05T10:00:21.296Z,99121.94
2022-09-05T10:06:30.183Z,99120.06
2022-09-05T10:10:46.659Z,99127.88
2022-09-05T10:10:53.340Z,99127.28
2022-09-05T10:13:50.357Z,99117.09
2022-09-05T10:16:27.560Z,99114.38
2022-09-05T10:18:51.306Z,99119.81
2022-09-05T10:21:27.264Z,99111.81
2022-09-05T10:23:52.467Z,99109.50
2022-09-05T10:26:24.770Z,99106.75
2022-09-05T10:29:06.621Z,99101.97
2022-09-05T10:33:01.070Z,99101.28
2022-09-05T10:35:13.251Z,99113.88
2022-09-05T10:36:33.710Z,99094.56
2022-09-05T10:38:42.993Z,99085.69
2022-09-05T10:41:19.710Z,99092.22
2022-09-05T10:43:31.219Z,99084.56
2022-09-05T10:45:57.218Z,99082.56
2022-09-05T10:48:23.627Z,99084.25
2022-09-05T10:50:29.270Z,99068.47
2022-09-05T10:52:59.245Z,99070.09
2022-09-05T10:55:22.005Z,99070.13
2022-09-05T10:57:39.756Z,99067.69
2022-09-05T11:02:16.374Z,99065.28
2022-09-05T11:02:36.722Z,99061.63
2022-09-05T11:05:22.607Z,99062.44
2022-09-05T11:07:53.146Z,99055.16
2022-09-05T11:10:17.500Z,99059.59
2022-09-05T11:12:57.654Z,99050.25
2022-09-05T11:15:02.910Z,99047.00
2022-09-05T11:17:27.708Z,99043.38
2022-09-05T11:19:56.380Z,99040.06
2022-09-05T11:22:22.656Z,99036.38
2022-09-05T11:24:31.285Z,99042.03
2022-09-05T11:26:47.706Z,99042.03
2022-09-05T11:29:14.197Z,99042.84
2022-09-05T11:31:21.184Z,99042.03
2022-09-05T11:38:05.811Z,99041.22
2022-09-05T11:40:01.997Z,99031.53
2022-09-05T11:40:07.554Z,99039.22
2022-09-05T11:42:17.748Z,99032.75
2022-09-05T11:44:26.963Z,99034.38
2022-09-05T11:46:37.255Z,99036.06
2022-09-05T11:49:13.102Z,99025.94
2022-09-05T11:51:36.191Z,99035.28
2022-09-05T11:54:09.881Z,99025.56
2022-09-05T11:56:32.501Z,99034.88
2022-09-05T11:59:04.863Z,99030.00
2022-09-05T12:01:41.850Z,99025.53
2022-09-05T12:04:16.957Z,99030.75
2022-09-05T12:06:33.470Z,99026.66
2022-09-05T12:08:52.934Z,99035.50
2022-09-05T12:11:08.587Z,99036.25
2022-09-05T12:13:37.803Z,99030.50
2022-09-05T12:15:53.413Z,99022.38
2022-09-05T12:18:34.973Z,99031.59
2022-09-05T12:20:55.496Z,99029.44
2022-09-05T12:23:25.391Z,99021.31
2022-09-05T12:27:40.842Z,99029.38
2022-09-05T12:29:34.775Z,99023.72
2022-09-05T12:32:30.560Z,99022.53
2022-09-05T12:36:07.463Z,99014.47
2022-09-05T12:40:06.274Z,99014.53
2022-09-05T12:41:37.035Z,99011.78
2022-09-05T12:42:11.296Z,99010.19
2022-09-05T12:44:44.507Z,98997.28
2022-09-05T12:47:17.051Z,99002.16
2022-09-05T12:49:35.097Z,98994.94
2022-09-05T12:51:54.052Z,98990.94
2022-09-05T12:54:04.308Z,98994.25
2022-09-05T12:58:04.111Z,98988.59
2022-09-05T13:02:56.873Z,98995.88
2022-09-05T13:03:06.577Z,98993.88
2022-09-05T13:04:20.310Z,98991.94
2022-09-05T13:06:42.909Z,98980.59
2022-09-05T13:08:52.843Z,98969.25
2022-09-05T13:14:46.291Z,98972.06
2022-09-05T13:14:52.377Z,98964.38
2022-09-05T13:15:54.042Z,98966.00
2022-09-05T13:18:25.183Z,98964.38
2022-09-05T13:20:49.269Z,98967.22
2022-09-05T13:22:53.314Z,98955.03
2022-09-05T13:25:08.958Z,98954.63
2022-09-05T13:27:17.283Z,98946.53
2022-09-05T13:29:32.257Z,98947.69
2022-09-05T13:38:04.234Z,98945.66
2022-09-05T13:38:09.896Z,98947.63
2022-09-05T13:38:12.826Z,98942.38
2022-09-05T13:39:19.797Z,98930.59
2022-09-05T13:41:34.746Z,98941.13
2022-09-05T13:43:41.119Z,98934.63
2022-09-05T13:46:17.378Z,98939.06
2022-09-05T13:51:26.028Z,98938.69
2022-09-05T13:53:36.805Z,98932.63
2022-09-05T13:55:54.819Z,98926.56
2022-09-05T13:58:11.924Z,98927.38
2022-09-05T14:00:28.007Z,98913.19
2022-09-05T14:05:50.377Z,98914.00
2022-09-05T14:08:18.046Z,98911.97
2022-09-05T14:10:47.114Z,98907.13
2022-09-05T14:13:04.291Z,98905.13
2022-09-05T14:15:32.034Z,98901.91
2022-09-05T14:17:57.939Z,98895.81
2022-09-05T14:20:18.915Z,98899.91
2022-09-05T14:22:52.185Z,98881.66
2022-09-05T14:24:58.750Z,98881.69
2022-09-05T14:27:03.504Z,98889.81
2022-09-05T14:29:17.034Z,98882.50
2022-09-05T14:33:16.746Z,98882.94
2022-09-05T14:37:49.104Z,98894.69
2022-09-05T14:38:01.356Z,98887.41
2022-09-05T14:38:48.990Z,98894.72
2022-09-05T14:41:23.256Z,98889.06
2022-09-05T14:43:47.532Z,98885.00
2022-09-05T14:46:11.252Z,98891.47
2022-09-05T14:48:35.026Z,98880.13
2022-09-05T14:50:42.376Z,98881.34
2022-09-05T14:55:29.122Z,98879.31
2022-09-05T15:02:39.090Z,98882.53
2022-09-05T15:02:44.859Z,98871.16
2022-09-05T15:02:57.410Z,98872.38
2022-09-05T15:05:11.192Z,98867.06
2022-09-05T15:07:24.519Z,98866.25
2022-09-05T15:11:21.676Z,98862.22
2022-09-05T15:12:24.408Z,98869.47
2022-09-05T15:14:12.005Z,98860.16
2022-09-05T15:16:15.366Z,98866.19
2022-09-05T15:18:25.400Z,98869.41
2022-09-05T15:20:31.550Z,98861.69
2022-09-05T15:22:37.697Z,98860.47
2022-09-05T15:24:42.277Z,98864.47
2022-09-05T15:27:03.030Z,98849.06
2022-09-05T15:29:13.319Z,98857.13
2022-09-05T15:31:19.184Z,98861.53
2022-09-05T15:33:25.548Z,98859.47
2022-09-05T15:35:40.954Z,98858.56
2022-09-05T15:37:43.563Z,98861.78
2022-09-05T15:39:45.273Z,98859.31
2022-09-05T15:41:47.116Z,98856.06
2022-09-05T15:43:53.949Z,98855.19
2022-09-05T15:46:04.119Z,98855.94
2022-09-05T15:48:12.500Z,98860.28
2022-09-05T15:50:22.112Z,98848.53
2022-09-05T15:52:29.152Z,98850.91
2022-09-05T15:54:38.687Z,98852.84
2022-09-05T15:56:48.313Z,98853.22
2022-09-05T15:58:55.042Z,98845.91
2022-09-05T16:00:59.877Z,98853.94
2022-09-05T16:04:38.031Z,98854.28
2022-09-05T16:10:34.320Z,98849.69
2022-09-05T16:10:36.984Z,98849.75
2022-09-05T16:10:37.156Z,98849.63
2022-09-05T16:12:53.345Z,98853.63
2022-09-05T16:15:19.889Z,98847.50
2022-09-05T16:23:20.017Z,98845.44
2022-09-05T16:23:24.443Z,98838.91
2022-09-05T16:23:29.336Z,98842.09
2022-09-05T16:24:59.212Z,98843.63
2022-09-05T16:27:06.278Z,98841.50
2022-09-05T16:29:10.937Z,98842.69
2022-09-05T16:31:50.232Z,98835.75
2022-09-05T16:33:52.202Z,98838.50
2022-09-05T16:36:12.905Z,98840.84
2022-09-05T16:38:48.982Z,98840.00
2022-09-05T16:40:55.870Z,98843.16
2022-09-05T16:43:02.460Z,98835.44
2022-09-05T16:45:12.042Z,98835.81
2022-09-05T16:47:25.580Z,98838.59
2022-09-05T16:49:42.142Z,98831.72
2022-09-05T16:51:52.838Z,98832.91
2022-09-05T16:53:59.721Z,98822.78
2022-09-05T16:56:15.214Z,98829.16
2022-09-05T16:58:33.633Z,98825.91
2022-09-05T17:00:48.624Z,98834.31
2022-09-05T17:02:59.406Z,98821.75
2022-09-05T17:05:22.683Z,98824.16
2022-09-05T17:07:42.908Z,98818.03
2022-09-05T17:09:45.973Z,98820.84
2022-09-05T17:12:00.608Z,98818.78
2022-09-05T17:14:10.806Z,98817.63
2022-09-05T17:16:29.763Z,98820.31
2022-09-05T17:18:35.425Z,98813.50
2022-09-05T17:20:40.705Z,98810.28
2022-09-05T17:29:20.566Z,98811.09
2022-09-05T17:29:27.607Z,98812.75
2022-09-05T17:29:47.328Z,98816.38
2022-09-05T17:32:38.757Z,98811.91
2022-09-05T17:35:18.077Z,98808.28
2022-09-05T17:38:11.182Z,98802.16
2022-09-05T17:40:38.471Z,98815.81
2022-09-05T17:42:50.027Z,98805.31
2022-09-05T17:45:07.512Z,98795.59
2022-09-05T17:47:36.305Z,98803.97
2022-09-05T17:49:45.250Z,98805.13
2022-09-05T17:51:52.960Z,98806.22
2022-09-05T17:54:00.718Z,98806.56
2022-09-05T17:56:04.665Z,98808.88
2022-09-05T17:58:49.282Z,98808.78
2022-09-05T18:00:52.196Z,98805.47
2022-09-05T18:02:56.679Z,98804.88
2022-09-05T18:05:01.433Z,98803.97
2022-09-05T18:07:25.754Z,98806.16
2022-09-05T18:09:37.073Z,98810.38
2022-09-05T18:12:02.063Z,98809.44
2022-09-05T18:17:37.188Z,98809.94
2022-09-05T18:19:33.545Z,98804.19
2022-09-05T18:21:50.125Z,98810.84
2022-09-05T18:24:07.867Z,98814.72
2022-09-05T18:26:24.149Z,98820.16
2022-09-05T18:28:57.288Z,98824.41
2022-09-05T18:31:41.747Z,98822.97
2022-09-05T18:34:13.276Z,98820.69
2022-09-05T18:36:25.924Z,98826.16
2022-09-05T18:38:51.782Z,98822.81
2022-09-05T18:41:11.408Z,98826.19
2022-09-05T18:43:31.935Z,98816.78
2022-09-05T18:45:35.744Z,98821.84
2022-09-05T18:47:51.138Z,98835.75
2022-09-05T18:50:24.060Z,98830.31
2022-09-05T18:52:25.099Z,98834.50
2022-09-05T18:54:28.055Z,98824.28
2022-09-05T18:57:09.712Z,98825.38
2022-09-05T18:59:13.027Z,98830.69
2022-09-05T19:01:22.725Z,98828.53
2022-09-05T19:03:33.154Z,98828.81
2022-09-05T19:05:48.972Z,98828.97
2022-09-05T19:07:59.333Z,98828.41
2022-09-05T19:10:35.697Z,98839.34
2022-09-05T19:12:53.430Z,98832.75
2022-09-05T19:14:58.869Z,98835.72
2022-09-05T19:17:13.436Z,98829.09
2022-09-05T19:19:24.772Z,98833.69
2022-09-05T19:21:33.172Z,98838.28
2022-09-05T19:23:51.343Z,98838.06
2022-09-05T19:26:09.959Z,98833.88
2022-09-05T19:36:56.175Z,98831.16
2022-09-05T19:36:59.407Z,98838.09
2022-09-05T19:37:03.786Z,98832.91
2022-09-05T19:37:15.101Z,98827.13
2022-09-05T19:38:13.301Z,98829.66
2022-09-05T19:47:27.603Z,98837.50
2022-09-05T19:47:29.535Z,98832.50
2022-09-05T19:47:37.379Z,98839.97
2022-09-05T19:48:04.104Z,98839.28
2022-09-05T19:50:01.253Z,98830.31
2022-09-05T19:52:16.467Z,98827.03
2022-09-05T19:54:26.830Z,98828.13
2022-09-05T19:56:40.598Z,98823.91
2022-09-05T19:58:42.357Z,98825.78
2022-09-05T20:00:50.402Z,98818.47
2022-09-05T20:03:03.261Z,98817.84
2022-09-05T20:05:08.091Z,98823.31
2022-09-05T20:07:18.897Z,98817.63
2022-09-05T20:09:25.431Z,98813.09
2022-09-05T20:11:37.353Z,98799.81
2022-09-05T20:13:47.799Z,98811.56
2022-09-05T20:15:50.344Z,98820.66
2022-09-05T20:17:53.902Z,98818.44
2022-09-05T20:20:24.759Z,98812.25
2022-09-05T20:22:49.639Z,98815.75
2022-09-05T20:24:51.778Z,98806.41
2022-09-05T20:26:54.239Z,98816.69
2022-09-05T20:29:11.082Z,98810.13
2022-09-05T20:31:27.784Z,98816.31
2022-09-05T20:33:39.752Z,98815.22
2022-09-05T20:43:07.989Z,98809.16
2022-09-05T20:43:20.810Z,98811.94
2022-09-05T20:43:21.746Z,98814.97
2022-09-05T20:43:37.473Z,98821.69
2022-09-05T20:46:22.707Z,98823.88
2022-09-05T20:54:09.537Z,98829.69
2022-09-05T20:54:19.241Z,98827.47
2022-09-05T20:54:24.430Z,98822.88
2022-09-05T20:55:40.211Z,98825.09
2022-09-05T20:57:43.732Z,98829.03
2022-09-05T20:59:48.400Z,98830.91
2022-09-05T21:02:04.864Z,98819.59
2022-09-05T21:04:06.803Z,98823.88
2022-09-05T21:06:25.726Z,98831.31
2022-09-05T21:08:35.327Z,98817.53
2022-09-05T21:10:56.063Z,98823.81
2022-09-05T21:12:59.014Z,98818.91
2022-09-05T21:15:22.907Z,98819.09
2022-09-05T21:17:31.395Z,98815.38
2022-09-05T21:19:35.402Z,98825.56
2022-09-05T21:21:37.099Z,98827.06
2022-09-05T21:23:38.831Z,98815.78
2022-09-05T21:26:00.574Z,98819.56
2022-09-05T21:28:22.837Z,98816.31
2022-09-05T21:30:40.300Z,98820.13
2022-09-05T21:32:42.129Z,98820.81
2022-09-05T21:34:55.172Z,98817.53
2022-09-05T21:37:07.332Z,98814.28
2022-09-05T21:39:09.735Z,98831.22
2022-09-05T21:41:12.811Z,98823.53
2022-09-05T21:47:35.934Z,98832.56
2022-09-05T21:47:46.103Z,98818.81
2022-09-05T21:48:05.234Z,98820.16
2022-09-05T21:50:10.357Z,98825.72
2022-09-05T21:52:22.237Z,98823.59
2022-09-05T21:59:16.795Z,98822.31
2022-09-05T21:59:25.235Z,98829.69
2022-09-05T21:59:41.542Z,98833.50
2022-09-05T22:01:53.169Z,98826.97
2022-09-05T22:03:58.262Z,98835.66
2022-09-05T22:06:03.942Z,98833.06
2022-09-05T22:08:10.271Z,98838.97
2022-09-05T22:10:12.113Z,98833.59
2022-09-05T22:12:29.948Z,98831.47
2022-09-05T22:14:35.370Z,98838.88
2022-09-05T22:16:41.351Z,98817.25
2022-09-05T22:18:49.763Z,98817.09
2022-09-05T22:21:24.662Z,98819.41
2022-09-05T22:23:13.882Z,98830.91
2022-09-05T22:25:27.379Z,98828.28
2022-09-05T22:27:31.596Z,98828.59
2022-09-05T22:29:35.387Z,98823.03
2022-09-05T22:31:37.021Z,98824.53
2022-09-05T22:33:38.592Z,98808.97
2022-09-05T22:35:40.779Z,98808.47
2022-09-05T22:37:44.582Z,98808.34
2022-09-05T22:39:49.376Z,98817.34
2022-09-05T22:41:51.010Z,98814.38
2022-09-05T22:43:52.555Z,98810.63
2022-09-05T22:45:59.719Z,98805.72
2022-09-05T22:48:10.313Z,98817.19
2022-09-05T22:50:11.886Z,98807.53
2022-09-05T22:52:16.213Z,98805.06
2022-09-05T22:54:17.781Z,98809.69
2022-09-05T22:56:33.992Z,98806.72
2022-09-05T22:58:43.465Z,98797.91
2022-09-05T23:00:46.340Z,98801.34
2022-09-05T23:02:52.166Z,98806.44
2022-09-05T23:04:53.978Z,98804.66
2022-09-05T23:06:58.101Z,98811.22
2022-09-05T23:08:59.645Z,98813.00
2022-09-05T23:11:13.446Z,98810.09
2022-09-05T23:13:15.062Z,98815.47
2022-09-05T23:15:20.191Z,98807.31
2022-09-05T23:17:21.838Z,98806.34
2022-09-05T23:19:23.413Z,98808.94
2022-09-05T23:21:25.189Z,98813.22
2022-09-05T23:23:26.676Z,98808.97
2022-09-05T23:25:28.264Z,98810.41
2022-09-05T23:27:34.981Z,98811.06
2022-09-05T23:29:36.500Z,98812.53
2022-09-05T23:31:38.166Z,98806.50
2022-09-05T23:33:41.879Z,98804.38
2022-09-05T23:35:43.512Z,98798.97
2022-09-05T23:37:46.332Z,98796.84
2022-09-05T23:39:47.915Z,98803.03
2022-09-05T23:41:49.471Z,98804.50
2022-09-05T23:43:51.041Z,98811.56
2022-09-05T23:45:52.987Z,98809.41
2022-09-05T23:47:57.658Z,98811.72
2022-09-05T23:49:59.292Z,98803.19
2022-09-05T23:52:00.878Z,98805.81
2022-09-05T23:54:02.451Z,98812.53
2022-09-05T23:56:06.615Z,98808.13
2022-09-05T23:58:11.589Z,98804.81
